Thompson, Missouri
Current Conditions -  °F | °C
As of 10:54 AM on Thursday 30 Oct 2014 (Local Time) from KCOU Reporting Station
Broken Clouds Broken Clouds  
Wind Chill: 42°   Ceiling: 8000
Heat Index: 47°   Visibility: 10mi
Dew Point: 38°   Wind: 10mph
Humidity: 71%   Direction: 170°S
Pressure: 30.07"   Gusts: NA
Location:  39.19°N, 91.98°W
Report Text: KCOU 301554Z 17009KT 10SM SCT070 BKN080 BKN110 08/03 A3007 RMK AO2 RAB01E30 SLP185 P0000 T00830033
Loading
Personal Weather Stations






























Interactive Weather Map New forecast layout! Learn more

10-Day Weather Forecast

Advertisements
Track Severe Weather on mobile